Time;durP1;ratioP1;P1;durP2;ratioP2;P2;SDS_P1;SDS_P2;PMS_P1;PMS_P2;Temp;Humidity;BMP_temperature;BMP_pressure;BME280_temperature;BME280_humidity;BME280_pressure;Samples;Min_cycle;Max_cycle;Signal;HPM_P1;HPM_P2
2021/07/02 00:00:33;;;;;;;1.60;1.50;;;25.00;50.60;;;28.60;34.74;101038.56;5154962;27;20099;-51
2021/07/02 00:03:00;;;;;;;1.65;1.38;;;25.00;50.60;;;28.58;34.69;101041.38;5154737;27;20074;-52
2021/07/02 00:05:26;;;;;;;1.95;1.30;;;25.00;50.60;;;28.58;34.59;101043.22;5154408;27;20065;-50
2021/07/02 00:07:52;;;;;;;1.38;1.27;;;25.00;50.60;;;28.60;34.89;101049.31;5134469;27;20051;-52
2021/07/02 00:10:18;;;;;;;1.48;1.38;;;25.00;50.60;;;28.58;34.85;101046.75;5154185;27;20042;-53
2021/07/02 00:12:44;;;;;;;1.58;1.40;;;25.00;50.70;;;28.59;34.52;101039.56;5154283;27;20097;-54
2021/07/02 00:15:12;;;;;;;2.25;1.33;;;25.00;50.70;;;28.57;34.85;101041.56;5154317;27;20042;-52
2021/07/02 00:17:39;;;;;;;1.20;1.10;;;25.00;50.70;;;28.55;34.77;101025.50;5154139;27;20065;-52
2021/07/02 00:20:07;;;;;;;1.23;1.13;;;25.00;50.70;;;28.57;34.76;101030.78;5154151;27;20051;-50
2021/07/02 00:22:34;;;;;;;1.17;1.02;;;24.90;50.60;;;28.57;34.50;101033.47;5154470;27;20043;-52
2021/07/02 00:25:06;;;;;;;1.13;1.02;;;25.00;50.70;;;28.53;34.66;101030.16;5154728;27;20053;-51
2021/07/02 00:27:33;;;;;;;1.48;1.23;;;25.00;50.70;;;28.56;34.64;101037.16;5135633;27;20113;-51
2021/07/02 00:30:00;;;;;;;1.45;1.20;;;25.00;50.70;;;28.56;34.97;101031.75;5154088;27;20043;-49
2021/07/02 00:32:25;;;;;;;1.30;1.20;;;25.00;50.80;;;28.56;34.70;101029.91;5154222;27;20133;-49
2021/07/02 00:34:52;;;;;;;1.40;1.30;;;24.90;50.70;;;28.55;34.73;101028.22;5154016;27;20486;-47
2021/07/02 00:37:18;;;;;;;1.63;1.27;;;24.90;50.70;;;28.56;34.62;101031.75;5153845;27;20468;-54
2021/07/02 00:39:43;;;;;;;2.03;1.30;;;24.90;50.70;;;28.52;34.69;101036.56;5153731;27;20054;-50
2021/07/02 00:42:10;;;;;;;1.30;1.20;;;24.90;50.80;;;28.54;34.83;101037.25;5153681;27;20398;-52
2021/07/02 00:44:46;;;;;;;1.40;1.30;;;24.90;50.80;;;28.54;34.96;101047.19;5153651;27;20490;-52
2021/07/02 00:47:13;;;;;;;2.42;1.35;;;24.90;50.80;;;28.54;34.88;101033.72;5134289;27;20051;-47
2021/07/02 00:49:40;;;;;;;1.10;1.00;;;24.90;50.80;;;28.54;34.73;101037.25;5153602;27;20133;-47
2021/07/02 00:52:10;;;;;;;1.70;1.30;;;24.90;50.80;;;28.52;35.01;101033.88;5135034;27;20069;-53
2021/07/02 00:54:38;;;;;;;1.42;1.33;;;24.90;50.80;;;28.51;34.71;101032.16;5157996;27;20461;-49
2021/07/02 00:57:09;;;;;;;1.20;1.10;;;24.90;50.80;;;28.51;34.90;101042.91;5120902;27;20474;-48
2021/07/02 00:59:36;;;;;;;1.27;1.17;;;24.90;50.80;;;28.51;34.92;101036.69;5137424;27;20043;-55
2021/07/02 01:02:03;;;;;;;1.25;1.15;;;24.90;50.80;;;28.50;34.65;101043.91;5154437;27;20051;-52
2021/07/02 01:04:30;;;;;;;1.70;1.40;;;24.90;50.80;;;28.51;34.64;101039.38;5157042;27;20492;-49
2021/07/02 01:06:56;;;;;;;1.50;1.30;;;24.90;50.80;;;28.51;34.62;101040.22;5138539;27;20636;-50
2021/07/02 01:09:25;;;;;;;1.48;1.38;;;24.90;50.90;;;28.46;34.96;101029.88;5120788;27;20039;-49
2021/07/02 01:11:53;;;;;;;1.38;1.23;;;24.90;50.80;;;28.49;34.74;101031.44;5157158;27;20103;-53
2021/07/02 01:14:20;;;;;;;2.22;1.45;;;24.90;50.90;;;28.48;34.74;101035.13;5121470;27;20038;-48
2021/07/02 01:16:46;;;;;;;1.33;1.10;;;24.90;50.90;;;28.48;35.01;101035.13;5138342;27;20043;-54
2021/07/02 01:19:14;;;;;;;1.27;1.17;;;24.90;50.90;;;28.48;34.71;101037.81;5137709;27;20043;-52
2021/07/02 01:21:42;;;;;;;1.35;1.25;;;24.90;50.90;;;28.46;34.92;101032.56;5138833;27;20149;-46
2021/07/02 01:24:10;;;;;;;1.38;1.08;;;24.90;50.90;;;28.47;35.05;101028.06;5138265;27;20054;-47
2021/07/02 01:26:36;;;;;;;1.42;1.33;;;24.80;50.90;;;28.48;34.83;101031.59;5138322;27;20102;-48
2021/07/02 01:29:03;;;;;;;1.90;1.20;;;24.90;50.90;;;28.46;34.78;101035.25;5121376;27;20035;-48
2021/07/02 01:31:29;;;;;;;1.17;1.10;;;24.90;51.00;;;28.44;35.15;101037.25;5138376;27;20069;-50
2021/07/02 01:33:55;;;;;;;1.35;1.23;;;24.90;51.00;;;28.44;34.81;101034.56;5138464;27;20068;-50
2021/07/02 01:36:24;;;;;;;1.70;1.30;;;24.80;50.90;;;28.41;35.06;101034.81;5157258;27;20394;-49
2021/07/02 01:38:53;;;;;;;1.88;1.27;;;24.80;50.90;;;28.44;34.92;101042.63;5157146;27;20046;-52
2021/07/02 01:41:20;;;;;;;1.30;1.20;;;24.80;51.00;;;28.44;34.68;101041.78;5134357;27;20391;-53
2021/07/02 01:43:47;;;;;;;1.33;1.23;;;24.80;50.90;;;28.44;34.97;101047.16;5137983;27;20187;-53
2021/07/02 01:46:14;;;;;;;1.58;1.48;;;24.90;51.00;;;28.45;34.83;101054.22;5156801;27;20039;-51
2021/07/02 01:48:40;;;;;;;1.52;1.20;;;24.80;51.00;;;28.45;34.95;101056.91;5137936;27;20142;-48
2021/07/02 01:51:07;;;;;;;1.45;1.35;;;24.80;51.00;;;28.42;35.11;101050.00;5119014;27;20130;-52
2021/07/02 01:53:34;;;;;;;1.63;1.25;;;24.80;51.00;;;28.42;34.85;101058.06;5137998;27;20046;-54
2021/07/02 01:56:00;;;;;;;1.30;1.20;;;24.80;51.00;;;28.42;35.06;101060.75;5138136;27;20042;-49
2021/07/02 01:58:27;;;;;;;1.73;1.27;;;24.80;51.00;;;28.42;35.04;101066.13;5137709;27;20107;-49
2021/07/02 02:01:10;;;;;;;1.30;1.20;;;24.80;51.00;;;28.43;35.17;101069.66;5138349;27;20050;-53
2021/07/02 02:03:36;;;;;;;1.30;1.20;;;24.80;51.00;;;28.40;35.20;101057.34;5137743;27;20045;-55
2021/07/02 02:06:02;;;;;;;1.70;1.48;;;24.80;51.00;;;28.42;34.78;101066.13;5137628;27;20509;-47
2021/07/02 02:08:29;;;;;;;1.25;1.20;;;24.80;51.00;;;28.40;35.02;101065.41;5138185;27;20133;-49
2021/07/02 02:10:56;;;;;;;1.20;1.10;;;24.80;51.00;;;28.40;35.13;101062.72;5137514;27;20047;-47
2021/07/02 02:13:27;;;;;;;1.33;1.15;;;24.80;51.10;;;28.38;35.03;101064.69;5137936;27;20085;-52
2021/07/02 02:16:02;;;;;;;1.20;1.10;;;24.80;51.10;;;28.39;34.79;101061.03;5137539;27;20054;-52
2021/07/02 02:18:30;;;;;;;1.10;1.00;;;24.80;51.10;;;28.40;35.08;101069.94;5137368;27;20482;-48
2021/07/02 02:20:56;;;;;;;1.40;1.30;;;24.80;51.10;;;28.38;34.98;101063.84;5138022;27;20047;-48
2021/07/02 02:23:22;;;;;;;1.48;1.33;;;24.80;51.10;;;28.38;34.82;101069.22;5156003;27;20074;-47
2021/07/02 02:25:47;;;;;;;1.58;1.40;;;24.80;51.10;;;28.36;34.99;101058.59;5119569;27;20039;-50
2021/07/02 02:28:14;;;;;;;1.05;0.98;;;24.80;51.10;;;28.35;35.01;101069.50;5137618;27;20043;-50
2021/07/02 02:30:40;;;;;;;1.40;1.20;;;24.80;51.20;;;28.36;35.38;101066.66;5137654;27;20135;-50
2021/07/02 02:33:11;;;;;;;1.35;1.25;;;24.80;51.20;;;28.36;35.01;101068.53;5154466;27;20043;-51
2021/07/02 02:35:38;;;;;;;1.15;1.08;;;24.80;51.20;;;28.37;35.29;101075.63;5137188;27;20053;-50
2021/07/02 02:38:05;;;;;;;1.40;1.10;;;24.80;51.20;;;28.34;34.92;101065.13;5137104;27;20051;-53
2021/07/02 02:40:33;;;;;;;1.20;1.10;;;24.70;51.20;;;28.32;34.99;101059.88;5154275;27;20137;-52
2021/07/02 02:42:59;;;;;;;1.30;1.20;;;24.70;51.20;;;28.34;34.88;101074.03;5155659;27;20394;-49
2021/07/02 02:45:26;;;;;;;1.40;1.30;;;24.80;51.30;;;28.34;35.28;101062.44;5120148;27;20050;-49
2021/07/02 02:47:54;;;;;;;1.20;1.15;;;24.80;51.30;;;28.33;34.96;101072.31;5137529;27;20133;-45
2021/07/02 02:50:20;;;;;;;1.20;1.10;;;24.70;51.20;;;28.34;35.25;101081.25;5136220;27;20091;-52
2021/07/02 02:52:47;;;;;;;1.40;1.30;;;24.80;51.30;;;28.30;35.34;101075.31;5136817;27;20062;-49
2021/07/02 02:55:13;;;;;;;1.20;1.10;;;24.70;51.20;;;28.33;35.41;101077.69;5153955;27;20069;-47
2021/07/02 02:57:39;;;;;;;1.83;1.30;;;24.70;51.30;;;28.32;34.97;101080.53;5155687;27;20078;-46
2021/07/02 03:00:10;;;;;;;1.45;1.20;;;24.70;51.30;;;28.27;35.00;101078.28;5135753;27;20547;-49
2021/07/02 03:02:36;;;;;;;1.27;1.13;;;24.70;51.30;;;28.30;35.29;101085.19;5137060;27;20054;-49
2021/07/02 03:05:05;;;;;;;1.02;0.93;;;24.70;51.30;;;28.30;35.24;101082.50;5121057;27;20086;-49
2021/07/02 03:07:32;;;;;;;1.40;1.30;;;24.70;51.30;;;28.27;35.24;101089.88;5136692;27;20062;-48
2021/07/02 03:10:00;;;;;;;1.52;1.30;;;24.70;51.30;;;28.29;35.03;101089.72;5136893;27;20043;-51
2021/07/02 03:12:28;;;;;;;1.63;1.30;;;24.70;51.30;;;28.27;35.30;101092.56;5136543;27;20137;-50
2021/07/02 03:14:54;;;;;;;1.75;1.50;;;24.70;51.30;;;28.24;35.27;101083.94;5135502;27;20047;-52
2021/07/02 03:17:22;;;;;;;1.63;1.52;;;24.70;51.30;;;28.27;35.36;101097.09;5152497;27;20142;-46
2021/07/02 03:19:48;;;;;;;1.38;1.27;;;24.70;51.40;;;28.26;35.39;101093.53;5154918;27;20111;-52
2021/07/02 03:22:16;;;;;;;1.50;1.40;;;24.70;51.40;;;28.22;35.13;101088.59;5151792;27;20055;-49
2021/07/02 03:24:44;;;;;;;1.40;1.30;;;24.70;51.40;;;28.23;35.11;101085.78;5121083;27;20054;-48
2021/07/02 03:27:12;;;;;;;1.40;1.30;;;24.70;51.50;;;28.25;35.31;101093.66;5135856;27;20058;-51
2021/07/02 03:29:39;;;;;;;1.38;1.27;;;24.70;51.50;;;28.24;35.25;101097.38;5134880;27;20073;-48
2021/07/02 03:32:08;;;;;;;2.45;1.60;;;24.70;51.50;;;28.21;35.17;101090.41;5134313;27;20045;-51
2021/07/02 03:34:35;;;;;;;1.35;1.25;;;24.60;51.40;;;28.24;35.19;101102.75;5121285;27;20137;-47
2021/07/02 03:37:00;;;;;;;1.33;1.23;;;24.70;51.50;;;28.20;35.45;101099.50;5154650;27;20398;-49
2021/07/02 03:39:26;;;;;;;1.52;1.42;;;24.70;51.50;;;28.22;35.51;101113.63;5154720;27;20055;-46
2021/07/02 03:41:53;;;;;;;1.40;1.30;;;24.70;51.50;;;28.23;35.55;101114.47;5132213;27;20047;-50
2021/07/02 03:44:21;;;;;;;1.48;1.38;;;24.70;51.50;;;28.20;35.56;101109.38;5135939;27;20388;-48
2021/07/02 03:46:48;;;;;;;1.40;1.30;;;24.70;51.50;;;28.20;35.14;101117.44;5135909;27;20453;-47
2021/07/02 03:49:14;;;;;;;1.40;1.30;;;24.60;51.50;;;28.19;35.37;101116.59;5134750;27;20043;-48
2021/07/02 03:51:41;;;;;;;1.50;1.38;;;24.60;51.50;;;28.21;35.27;101120.00;5134166;27;20058;-47
2021/07/02 03:54:07;;;;;;;1.27;1.17;;;24.60;51.50;;;28.22;35.21;101123.53;5154611;27;20039;-53
2021/07/02 03:56:32;;;;;;;1.42;1.20;;;24.60;51.50;;;28.21;35.45;101125.38;5154561;27;20038;-54
2021/07/02 03:58:58;;;;;;;1.15;1.05;;;24.60;51.60;;;28.22;35.31;101120.84;5154366;27;20096;-49
2021/07/02 04:01:24;;;;;;;1.10;1.00;;;24.60;51.50;;;28.19;35.18;101116.59;5154545;27;20050;-50
2021/07/02 04:03:50;;;;;;;1.50;1.30;;;24.60;51.50;;;28.21;35.22;101116.47;5154496;27;20043;-51
2021/07/02 04:06:16;;;;;;;1.40;1.30;;;24.70;51.50;;;28.23;35.18;101127.91;5154950;27;20474;-49
2021/07/02 04:08:41;;;;;;;1.55;1.45;;;24.60;51.50;;;28.23;35.38;101128.78;5154380;27;20505;-45
2021/07/02 04:11:08;;;;;;;1.55;1.45;;;24.70;51.50;;;28.23;35.52;101133.28;5154269;27;20497;-47
2021/07/02 04:13:34;;;;;;;1.63;1.40;;;24.70;51.60;;;28.23;35.32;101130.59;5154521;27;20042;-49
2021/07/02 04:16:00;;;;;;;1.40;1.30;;;24.60;51.50;;;28.20;35.35;101130.88;5154392;27;20488;-51
2021/07/02 04:18:26;;;;;;;1.63;1.38;;;24.60;51.60;;;28.23;35.54;101136.84;5154501;27;20089;-51
2021/07/02 04:20:52;;;;;;;1.00;0.95;;;24.60;51.60;;;28.20;35.29;101133.56;5154229;27;20050;-49
2021/07/02 04:23:17;;;;;;;1.27;1.20;;;24.60;51.50;;;28.23;35.27;101142.25;5154213;27;20065;-50
2021/07/02 04:25:43;;;;;;;1.52;1.30;;;24.70;51.60;;;28.22;35.29;101145.91;5154297;27;20065;-50
2021/07/02 04:28:09;;;;;;;1.70;1.60;;;24.60;51.50;;;28.19;35.28;101143.47;5157586;27;20469;-48
2021/07/02 04:30:35;;;;;;;1.67;1.52;;;24.60;51.60;;;28.20;35.49;101152.38;5157774;27;20459;-50
2021/07/02 04:33:01;;;;;;;1.45;1.35;;;24.60;51.60;;;28.19;35.26;101140.78;5157844;27;20133;-51
2021/07/02 04:35:27;;;;;;;1.52;1.30;;;24.60;51.60;;;28.21;35.59;101152.25;5156348;27;20138;-51
2021/07/02 04:37:52;;;;;;;2.15;1.40;;;24.60;51.70;;;28.20;35.55;101149.69;5138161;27;20066;-53
2021/07/02 04:40:18;;;;;;;1.35;1.25;;;24.60;51.70;;;28.21;35.35;101148.72;5158332;27;20046;-50
2021/07/02 04:42:44;;;;;;;1.50;1.27;;;24.60;52.20;;;28.20;35.45;101141.63;5157534;27;20043;-47
2021/07/02 04:45:10;;;;;;;1.23;1.10;;;24.60;51.60;;;28.22;35.22;101153.97;5157659;27;20080;-50
2021/07/02 04:47:37;;;;;;;1.60;1.50;;;24.60;51.60;;;28.21;35.26;101140.66;5139073;27;20124;-48
2021/07/02 04:50:06;;;;;;;1.65;1.55;;;24.70;51.60;;;28.24;35.46;101145.75;5157249;27;20483;-51
2021/07/02 04:52:33;;;;;;;1.42;1.33;;;24.70;51.60;;;28.27;35.37;101148.19;5157466;27;20095;-47
2021/07/02 04:54:59;;;;;;;1.58;1.15;;;24.70;51.60;;;28.26;35.58;101146.47;5157182;27;20053;-48
2021/07/02 04:57:26;;;;;;;1.48;1.38;;;24.70;51.60;;;-147.20;100.00;58430.41;5157696;27;20058;-51
2021/07/02 04:59:51;;;;;;;1.73;1.50;;;24.80;51.50;;;-147.20;100.00;58430.41;5157396;27;20047;-49
2021/07/02 05:02:18;;;;;;;1.60;1.50;;;24.80;51.50;;;-147.20;100.00;58430.41;5157708;27;20051;-46
2021/07/02 05:04:43;;;;;;;1.50;1.40;;;24.90;51.30;;;-147.20;100.00;58430.41;5157072;27;20569;-49
2021/07/02 05:07:11;;;;;;;1.45;1.35;;;25.00;51.10;;;-147.20;100.00;58430.41;5157710;27;20039;-53
2021/07/02 05:09:36;;;;;;;1.60;1.50;;;25.00;50.90;;;-147.20;100.00;58430.41;5153913;27;20095;-52
2021/07/02 05:12:04;;;;;;;1.67;1.58;;;25.10;50.80;;;-147.20;100.00;58430.41;5157063;27;20054;-51
2021/07/02 05:14:29;;;;;;;1.48;1.27;;;25.20;50.70;;;-147.20;100.00;58430.41;5156859;27;20054;-49
2021/07/02 05:16:55;;;;;;;1.67;1.58;;;25.20;50.70;;;-147.20;100.00;58430.41;5156873;27;20050;-46
2021/07/02 05:19:21;;;;;;;1.33;1.23;;;25.20;50.50;;;28.26;35.58;101146.47;5138836;27;20094;-47
2021/07/02 05:21:48;;;;;;;1.60;1.50;;;25.20;50.40;;;28.94;34.28;101170.88;5157024;27;20055;-51
2021/07/02 05:24:13;;;;;;;2.50;1.52;;;25.20;50.40;;;28.95;34.38;101174.41;5157178;27;20092;-47
2021/07/02 05:26:39;;;;;;;1.38;1.27;;;25.30;50.50;;;28.99;34.54;101170.44;5121219;27;20042;-47
2021/07/02 05:29:05;;;;;;;1.50;1.40;;;25.30;50.40;;;29.05;34.22;101183.31;5156685;27;20515;-48
2021/07/02 05:31:31;;;;;;;1.55;1.40;;;25.40;50.40;;;29.04;34.40;101170.03;5156755;27;20203;-49
2021/07/02 05:33:56;;;;;;;1.30;1.20;;;25.30;50.30;;;29.08;34.36;101174.97;5119236;27;20055;-45
2021/07/02 05:36:22;;;;;;;1.40;1.30;;;25.40;50.30;;;29.08;100.00;101174.97;5157142;27;20394;-50
2021/07/02 05:38:48;;;;;;;1.50;1.35;;;25.40;50.20;;;-147.20;100.00;58430.41;5156042;27;20121;-49
2021/07/02 05:41:14;;;;;;;3.20;1.50;;;25.40;50.20;;;-147.20;100.00;58430.41;5156751;27;20054;-53
2021/07/02 05:43:40;;;;;;;1.60;1.50;;;25.50;50.20;;;-147.20;100.00;58430.41;5156463;27;20043;-53
2021/07/02 05:46:06;;;;;;;1.63;1.52;;;25.40;50.60;;;-147.20;100.00;58430.41;5156670;27;20049;-49
2021/07/02 05:48:33;;;;;;;1.58;1.48;;;25.40;50.40;;;-147.20;100.00;58430.41;5156581;27;20049;-46
2021/07/02 05:50:59;;;;;;;1.63;1.40;;;25.40;50.50;;;-147.20;100.00;58430.41;5137744;27;20035;-50
2021/07/02 05:53:24;;;;;;;1.70;1.52;;;25.40;50.50;;;29.15;34.16;101173.44;5138018;27;20035;-47
2021/07/02 05:55:50;;;;;;;2.20;1.42;;;25.40;50.60;;;29.13;34.15;101171.88;5156630;27;20137;-49
2021/07/02 05:58:16;;;;;;;1.88;1.33;;;25.30;50.70;;;29.10;34.22;101178.41;5119153;27;20069;-48
2021/07/02 06:00:42;;;;;;;2.38;1.48;;;25.30;50.70;;;29.09;34.32;101170.47;5156533;27;20050;-51
2021/07/02 06:03:08;;;;;;;1.35;1.25;;;25.30;50.70;;;29.07;34.29;101173.28;5156582;27;20402;-51
2021/07/02 06:05:34;;;;;;;1.70;1.60;;;25.20;50.70;;;29.07;34.22;101177.81;5137921;27;20046;-54
2021/07/02 06:08:02;;;;;;;1.55;1.45;;;25.30;50.70;;;29.06;34.29;101173.44;5156436;27;20474;-51
2021/07/02 06:10:30;;;;;;;2.05;1.38;;;25.30;50.70;;;29.09;34.18;101178.53;5156044;27;20047;-53
2021/07/02 06:12:57;;;;;;;1.40;1.30;;;25.30;51.20;;;29.11;34.43;101174.69;5156117;27;20099;-46
2021/07/02 06:15:24;;;;;;;1.27;1.17;;;25.30;50.60;;;29.12;34.24;101178.22;5137819;27;20043;-50
2021/07/02 06:17:50;;;;;;;1.50;1.40;;;25.40;50.70;;;-147.20;100.00;58430.41;5156392;27;20050;-48
2021/07/02 06:20:18;;;;;;;1.60;1.50;;;25.40;50.50;;;-147.20;100.00;58430.41;5156118;27;20486;-48
2021/07/02 06:22:44;;;;;;;1.67;1.58;;;25.40;50.40;;;-147.20;100.00;58430.41;5156097;27;20047;-52
2021/07/02 06:25:12;;;;;;;1.67;1.58;;;25.40;50.30;;;-147.20;100.00;58430.41;5156097;27;20066;-50
2021/07/02 06:27:39;;;;;;;1.77;1.67;;;25.50;50.30;;;-147.20;100.00;58430.41;5156212;27;20550;-52
2021/07/02 06:30:07;;;;;;;1.75;1.65;;;25.40;50.20;;;-147.20;100.00;58430.41;5155834;27;20383;-48
2021/07/02 06:32:34;;;;;;;1.77;1.63;;;25.40;50.20;;;-147.20;100.00;58430.41;5155747;27;20102;-51
2021/07/02 06:35:00;;;;;;;1.60;1.50;;;25.40;50.30;;;-147.20;100.00;58430.41;5155718;27;20050;-51
2021/07/02 06:37:26;;;;;;;1.45;1.35;;;25.40;50.30;;;-147.20;100.00;58430.41;5155765;27;20559;-52
2021/07/02 06:39:51;;;;;;;2.60;1.73;;;25.40;50.20;;;-147.20;100.00;58430.41;5155622;27;20038;-49
2021/07/02 06:42:17;;;;;;;1.70;1.60;;;25.40;50.30;;;-147.20;100.00;58430.41;5137482;27;20046;-48
2021/07/02 06:44:43;;;;;;;2.60;1.40;;;25.40;50.30;;;-147.20;100.00;58430.41;5155428;27;20053;-48
2021/07/02 06:47:09;;;;;;;1.67;1.58;;;25.40;50.20;;;-147.20;100.00;58430.41;5155833;27;20134;-48
2021/07/02 06:49:38;;;;;;;1.35;1.15;;;25.40;50.30;;;-147.20;100.00;58430.41;5154315;27;20422;-47
2021/07/02 06:52:05;;;;;;;1.60;1.50;;;25.40;50.30;;;-147.20;100.00;58430.41;5155800;27;20062;-47
2021/07/02 06:54:30;;;;;;;1.40;1.30;;;25.40;50.40;;;-147.20;100.00;58430.41;5155104;27;20107;-47
2021/07/02 06:57:08;;;;;;;1.73;1.60;;;25.40;50.40;;;-147.20;100.00;58430.41;5155553;27;20050;-46
2021/07/02 06:59:37;;;;;;;1.40;1.30;;;25.40;50.40;;;-147.20;100.00;58430.41;5155622;27;20138;-47
2021/07/02 07:02:04;;;;;;;1.33;1.23;;;25.40;50.40;;;-147.20;100.00;58430.41;5155529;27;20133;-49
2021/07/02 07:04:35;;;;;;;1.38;1.27;;;25.40;50.40;;;-147.20;100.00;58430.41;5155834;27;20474;-49
2021/07/02 07:07:05;;;;;;;1.73;1.50;;;25.40;50.30;;;-147.20;100.00;58430.41;5136941;27;20051;-46
2021/07/02 07:09:31;;;;;;;2.00;1.80;;;25.40;50.30;;;-147.20;100.00;58430.41;5155133;27;20103;-47
2021/07/02 07:11:58;;;;;;;2.40;1.60;;;25.40;50.30;;;-147.20;100.00;58430.41;5155032;27;20054;-47
2021/07/02 07:14:24;;;;;;;1.60;1.50;;;25.40;50.30;;;-147.20;100.00;58430.41;5155143;27;20077;-46
2021/07/02 07:16:50;;;;;;;1.52;1.42;;;25.40;50.20;;;-147.20;100.00;58430.41;5132842;27;20411;-44
2021/07/02 07:19:16;;;;;;;1.58;1.48;;;25.40;50.20;;;-147.20;100.00;58430.41;5155576;27;20370;-49
2021/07/02 07:21:42;;;;;;;1.60;1.50;;;25.50;50.20;;;-147.20;100.00;58430.41;5154817;27;20073;-50
2021/07/02 07:24:07;;;;;;;2.33;1.80;;;25.50;50.20;;;-147.20;100.00;58430.41;5155191;27;20047;-47
2021/07/02 07:26:34;;;;;;;1.67;1.40;;;25.60;50.10;;;-147.20;100.00;58430.41;5136197;27;20557;-48
2021/07/02 07:29:00;;;;;;;1.80;1.70;;;25.60;49.90;;;-147.20;100.00;58430.41;5154836;27;20057;-47
2021/07/02 07:31:26;;;;;;;1.50;1.40;;;25.70;49.80;;;-147.20;100.00;58430.41;5154668;27;20049;-51
2021/07/02 07:33:53;;;;;;;1.67;1.58;;;25.70;49.60;;;-147.20;100.00;58430.41;5154753;27;20043;-49
2021/07/02 07:36:21;;;;;;;1.33;1.23;;;25.80;49.70;;;-147.20;100.00;58430.41;5154827;27;20478;-49
2021/07/02 07:38:47;;;;;;;2.08;1.88;;;25.80;49.70;;;-147.20;100.00;58430.41;5154823;27;20057;-51
2021/07/02 07:41:13;;;;;;;1.88;1.60;;;25.70;49.60;;;-147.20;100.00;58430.41;5136527;27;20417;-51
2021/07/02 07:43:38;;;;;;;1.67;1.58;;;25.70;49.60;;;-147.20;100.00;58430.41;5134785;27;20047;-50
2021/07/02 07:46:07;;;;;;;1.60;1.50;;;25.70;49.60;;;-147.20;100.00;58430.41;5154768;27;20097;-49
2021/07/02 07:48:34;;;;;;;2.28;1.92;;;25.80;49.60;;;-147.20;100.00;58430.41;5154787;27;20099;-48
2021/07/02 07:51:15;;;;;;;1.95;1.58;;;25.80;49.50;;;-147.20;100.00;58430.41;5135823;27;20039;-48
2021/07/02 07:53:41;;;;;;;1.60;1.48;;;25.80;49.50;;;-147.20;100.00;58430.41;5153249;27;20038;-51
2021/07/02 07:56:07;;;;;;;1.75;1.60;;;25.70;49.40;;;-147.20;100.00;58430.41;5154575;27;20179;-46
2021/07/02 07:58:33;;;;;;;1.48;1.38;;;25.80;49.50;;;-147.20;100.00;58430.41;5154310;27;20042;-46
2021/07/02 08:00:59;;;;;;;1.95;1.70;;;25.80;49.50;;;-147.20;100.00;58430.41;5134439;27;20050;-48
2021/07/02 08:03:24;;;;;;;1.92;1.73;;;25.80;49.50;;;-147.20;100.00;58430.41;5134149;27;20069;-53
2021/07/02 08:05:50;;;;;;;2.13;1.70;;;25.80;49.50;;;-147.20;100.00;58430.41;5154325;27;20059;-49
2021/07/02 08:08:16;;;;;;;1.58;1.48;;;25.80;49.50;;;-147.20;100.00;58430.41;5154548;27;20046;-47
2021/07/02 08:10:43;;;;;;;1.88;1.55;;;25.80;49.40;;;-147.20;100.00;58430.41;5154085;27;20110;-49
2021/07/02 08:13:09;;;;;;;1.83;1.70;;;25.80;49.40;;;-147.20;100.00;58430.41;5130420;28;20048;-47
2021/07/02 08:15:35;;;;;;;1.80;1.65;;;25.80;49.40;;;-147.20;100.00;58430.41;5133479;28;20046;-45
2021/07/02 08:18:01;;;;;;;1.80;1.65;;;25.80;49.30;;;-147.20;100.00;58430.41;5133355;28;20543;-47
2021/07/02 08:20:27;;;;;;;1.77;1.67;;;25.80;49.30;;;-147.20;100.00;58430.41;5115012;28;20404;-48
2021/07/02 08:22:53;;;;;;;1.77;1.65;;;25.90;49.40;;;-147.20;100.00;58430.41;5133538;28;20054;-46
2021/07/02 08:25:18;;;;;;;1.60;1.50;;;26.00;49.40;;;-147.20;100.00;58430.41;5133362;28;20059;-48
2021/07/02 08:30:29;;;;;;;2.35;1.70;;;26.10;48.90;;;-147.20;100.00;58430.41;5133493;28;20380;-51
2021/07/02 08:32:55;;;;;;;2.78;1.58;;;26.20;48.70;;;-147.20;100.00;58430.41;5133262;28;20065;-52
2021/07/02 08:35:21;;;;;;;1.90;1.73;;;26.20;48.50;;;-147.20;100.00;58430.41;5133540;28;20422;-46
2021/07/02 08:37:52;;;;;;;1.70;1.60;;;26.30;48.50;;;-147.20;100.00;58430.41;5133230;28;20057;-51
2021/07/02 08:40:22;;;;;;;2.00;1.88;;;26.30;48.40;;;-147.20;100.00;58430.41;5133566;28;20483;-52
2021/07/02 08:42:50;;;;;;;2.67;1.65;;;26.40;48.30;;;30.24;32.65;101208.16;5133180;28;20092;-49
2021/07/02 08:45:17;;;;;;;1.70;1.60;;;26.40;48.30;;;30.23;32.38;101213.69;5133107;28;20047;-54
2021/07/02 08:47:43;;;;;;;2.00;1.85;;;26.30;48.30;;;30.18;32.42;101203.34;5133181;28;20058;-50
2021/07/02 08:50:09;;;;;;;1.80;1.70;;;26.30;48.30;;;30.19;32.42;101212.28;5114634;28;20061;-50
2021/07/02 08:52:36;;;;;;;1.98;1.85;;;26.30;48.40;;;30.17;32.46;101214.28;5114599;28;20039;-49
2021/07/02 08:55:06;;;;;;;2.78;1.90;;;26.30;48.40;;;30.16;32.67;101213.44;5132910;28;20113;-52
2021/07/02 08:57:32;;;;;;;1.77;1.67;;;26.30;48.40;;;30.20;32.67;101216.69;5133415;28;20043;-52
2021/07/02 09:00:00;;;;;;;1.65;1.45;;;26.30;48.40;;;30.17;32.39;101208.91;5132854;28;20126;-50
2021/07/02 09:02:35;;;;;;;1.60;1.50;;;26.30;48.40;;;30.11;32.42;101211.19;5132853;28;20611;-47
2021/07/02 09:05:34;;;;;;;2.63;1.90;;;26.30;48.40;;;30.13;32.69;101215.59;5114317;28;20084;-52
2021/07/02 09:08:01;;;;;;;1.60;1.50;;;26.30;48.40;;;30.16;32.37;101215.31;5128786;28;20050;-49
2021/07/02 09:10:36;;;;;;;1.88;1.75;;;26.30;48.40;;;30.16;32.65;101209.91;5132557;28;20116;-53
2021/07/02 09:13:03;;;;;;;1.92;1.73;;;26.40;48.40;;;30.22;32.41;101223.66;5113383;28;20075;-52
2021/07/02 09:15:29;;;;;;;1.65;1.55;;;26.40;48.30;;;30.21;32.39;101224.63;5136441;28;20505;-46
2021/07/02 09:17:59;;;;;;;2.35;2.00;;;26.40;48.20;;;30.24;32.37;101224.34;5136609;28;20058;-51
2021/07/02 09:20:35;;;;;;;1.67;1.45;;;26.40;48.20;;;30.22;32.36;101220.97;5136158;28;20075;-51
2021/07/02 09:23:08;;;;;;;1.70;1.60;;;26.40;48.20;;;30.24;32.41;101228.91;5136536;28;20053;-52
2021/07/02 09:25:47;;;;;;;1.48;1.38;;;26.40;48.20;;;30.25;32.39;101233.28;5136433;28;20043;-47
2021/07/02 09:28:20;;;;;;;1.90;1.80;;;26.40;48.20;;;30.24;32.35;101231.59;5136444;28;20125;-51
2021/07/02 09:30:52;;;;;;;3.08;2.13;;;26.40;48.10;;;30.23;32.50;101241.53;5134892;28;20065;-51
2021/07/02 09:33:23;;;;;;;1.90;1.70;;;26.40;48.10;;;30.24;32.32;101227.03;5133064;28;20044;-49
2021/07/02 09:35:53;;;;;;;1.67;1.58;;;26.40;48.10;;;30.27;32.25;101237.53;5136237;28;20047;-46
2021/07/02 09:38:36;;;;;;;2.63;1.70;;;26.40;48.00;;;30.29;32.38;101237.41;5134775;28;20124;-51
2021/07/02 09:41:04;;;;;;;1.92;1.80;;;26.50;48.00;;;30.30;32.21;101237.25;5135923;28;20135;-51
2021/07/02 09:43:30;;;;;;;1.90;1.70;;;26.50;48.00;;;30.27;32.33;101228.59;5135888;28;20044;-51
2021/07/02 09:46:01;;;;;;;1.80;1.70;;;26.50;48.00;;;30.32;32.17;101236.25;5135860;28;20059;-53
2021/07/02 09:48:28;;;;;;;;;;;26.50;47.90;;;30.44;32.02;101227.00;5136383;28;20051;-53
2021/07/02 09:50:57;;;;;;;2.60;1.85;;;26.50;47.90;;;30.44;32.12;101233.25;5135613;28;19916;-51
2021/07/02 09:53:35;;;;;;;1.83;1.73;;;26.60;47.80;;;30.41;32.12;101238.09;5136428;28;20131;-53
2021/07/02 09:56:18;;;;;;;2.45;1.75;;;26.60;47.70;;;30.47;31.92;101242.88;5117314;28;20055;-48
2021/07/02 09:58:44;;;;;;;1.75;1.60;;;26.60;47.70;;;30.48;32.06;101240.03;5135750;28;20055;-53
2021/07/02 10:01:23;;;;;;;2.00;1.55;;;26.70;47.70;;;30.50;31.97;101236.34;5135606;28;20401;-51
2021/07/02 10:03:48;;;;;;;1.80;1.70;;;26.70;47.60;;;30.54;31.88;101240.44;5117342;28;20055;-51
2021/07/02 10:06:25;;;;;;;1.80;1.60;;;26.70;47.50;;;30.53;31.92;101236.88;5136312;28;20051;-49
2021/07/02 10:08:51;;;;;;;1.80;1.70;;;26.70;47.50;;;30.55;31.76;101234.88;5135334;28;20494;-51
2021/07/02 10:11:18;;;;;;;2.15;1.95;;;26.70;47.50;;;30.51;31.83;101238.91;5135360;28;20055;-48